sensor_id;sensor_type;location;lat;lon;timestamp;pressure;altitude;pressure_sealevel;temperature;humidity
56006;BME280;41888;44.696;10.522;2023-04-27T00:00:29;100459.03;;;10.23;100.00
56006;BME280;41888;44.696;10.522;2023-04-27T00:02:56;100467.03;;;10.23;100.00
56006;BME280;41888;44.696;10.522;2023-04-27T00:05:22;100460.88;;;10.22;100.00
56006;BME280;41888;44.696;10.522;2023-04-27T00:07:48;100463.72;;;10.21;100.00
56006;BME280;41888;44.696;10.522;2023-04-27T00:10:14;100460.63;;;10.10;100.00
56006;BME280;41888;44.696;10.522;2023-04-27T00:12:40;100454.69;;;10.08;100.00
56006;BME280;41888;44.696;10.522;2023-04-27T00:15:08;100451.59;;;10.05;100.00
56006;BME280;41888;44.696;10.522;2023-04-27T00:17:34;100452.78;;;9.83;100.00
56006;BME280;41888;44.696;10.522;2023-04-27T00:20:00;100452.81;;;9.96;100.00
56006;BME280;41888;44.696;10.522;2023-04-27T00:22:26;100452.69;;;9.63;100.00
56006;BME280;41888;44.696;10.522;2023-04-27T00:24:52;100451.44;;;9.59;100.00
56006;BME280;41888;44.696;10.522;2023-04-27T00:27:19;100454.72;;;9.61;100.00
56006;BME280;41888;44.696;10.522;2023-04-27T00:29:45;100459.81;;;9.62;100.00
56006;BME280;41888;44.696;10.522;2023-04-27T00:32:11;100466.19;;;9.61;100.00
56006;BME280;41888;44.696;10.522;2023-04-27T00:34:37;100462.09;;;9.65;100.00
56006;BME280;41888;44.696;10.522;2023-04-27T00:37:04;100468.91;;;9.81;100.00
56006;BME280;41888;44.696;10.522;2023-04-27T00:39:32;100469.75;;;9.82;100.00
56006;BME280;41888;44.696;10.522;2023-04-27T00:41:59;100472.31;;;9.68;100.00
56006;BME280;41888;44.696;10.522;2023-04-27T00:44:27;100468.06;;;9.74;100.00
56006;BME280;41888;44.696;10.522;2023-04-27T00:46:53;100477.28;;;9.85;100.00
56006;BME280;41888;44.696;10.522;2023-04-27T00:49:21;100473.81;;;9.84;100.00
56006;BME280;41888;44.696;10.522;2023-04-27T00:51:48;100477.03;;;9.73;100.00
56006;BME280;41888;44.696;10.522;2023-04-27T00:54:19;100481.72;;;9.64;100.00
56006;BME280;41888;44.696;10.522;2023-04-27T00:56:49;100478.84;;;9.59;100.00
56006;BME280;41888;44.696;10.522;2023-04-27T00:59:17;100483.28;;;9.52;100.00
56006;BME280;41888;44.696;10.522;2023-04-27T01:01:44;100480.69;;;9.31;100.00
56006;BME280;41888;44.696;10.522;2023-04-27T01:04:11;100490.84;;;9.21;100.00
56006;BME280;41888;44.696;10.522;2023-04-27T01:06:37;100478.91;;;9.38;100.00
56006;BME280;41888;44.696;10.522;2023-04-27T01:09:04;100472.59;;;9.39;100.00
56006;BME280;41888;44.696;10.522;2023-04-27T01:11:32;100480.34;;;9.34;100.00
56006;BME280;41888;44.696;10.522;2023-04-27T01:14:03;100486.41;;;9.28;100.00
56006;BME280;41888;44.696;10.522;2023-04-27T01:16:30;100475.56;;;9.23;100.00
56006;BME280;41888;44.696;10.522;2023-04-27T01:18:57;100487.78;;;9.17;100.00
56006;BME280;41888;44.696;10.522;2023-04-27T01:21:24;100479.28;;;9.01;100.00
56006;BME280;41888;44.696;10.522;2023-04-27T01:23:51;100472.44;;;9.13;100.00
56006;BME280;41888;44.696;10.522;2023-04-27T01:26:17;100479.34;;;9.07;100.00
56006;BME280;41888;44.696;10.522;2023-04-27T01:28:43;100483.00;;;9.06;100.00
56006;BME280;41888;44.696;10.522;2023-04-27T01:31:11;100490.72;;;9.01;100.00
56006;BME280;41888;44.696;10.522;2023-04-27T01:33:38;100482.16;;;8.78;100.00
56006;BME280;41888;44.696;10.522;2023-04-27T01:36:04;100485.97;;;8.69;100.00
56006;BME280;41888;44.696;10.522;2023-04-27T01:38:33;100485.22;;;8.75;100.00
56006;BME280;41888;44.696;10.522;2023-04-27T01:40:59;100491.06;;;8.92;100.00
56006;BME280;41888;44.696;10.522;2023-04-27T01:43:27;100489.56;;;8.82;100.00
56006;BME280;41888;44.696;10.522;2023-04-27T01:45:53;100485.72;;;8.64;100.00
56006;BME280;41888;44.696;10.522;2023-04-27T01:48:19;100483.97;;;8.50;100.00
56006;BME280;41888;44.696;10.522;2023-04-27T01:50:46;100499.41;;;8.67;100.00
56006;BME280;41888;44.696;10.522;2023-04-27T01:53:12;100502.53;;;8.50;100.00
56006;BME280;41888;44.696;10.522;2023-04-27T01:55:38;100496.22;;;8.51;100.00
56006;BME280;41888;44.696;10.522;2023-04-27T01:58:05;100498.97;;;8.64;100.00
56006;BME280;41888;44.696;10.522;2023-04-27T02:00:31;100499.72;;;8.58;100.00
56006;BME280;41888;44.696;10.522;2023-04-27T02:02:57;100503.72;;;8.47;100.00
56006;BME280;41888;44.696;10.522;2023-04-27T02:05:25;100498.22;;;8.48;100.00
56006;BME280;41888;44.696;10.522;2023-04-27T02:07:51;100506.25;;;8.55;100.00
56006;BME280;41888;44.696;10.522;2023-04-27T02:10:17;100506.03;;;8.35;100.00
56006;BME280;41888;44.696;10.522;2023-04-27T02:12:43;100506.78;;;8.29;100.00
56006;BME280;41888;44.696;10.522;2023-04-27T02:15:09;100506.59;;;8.31;100.00
56006;BME280;41888;44.696;10.522;2023-04-27T02:17:36;100517.31;;;8.23;100.00
56006;BME280;41888;44.696;10.522;2023-04-27T02:20:03;100518.38;;;8.28;100.00
56006;BME280;41888;44.696;10.522;2023-04-27T02:22:32;100509.09;;;8.18;100.00
56006;BME280;41888;44.696;10.522;2023-04-27T02:24:59;100522.59;;;8.23;100.00
56006;BME280;41888;44.696;10.522;2023-04-27T02:27:25;100519.25;;;7.99;100.00
56006;BME280;41888;44.696;10.522;2023-04-27T02:29:51;100511.31;;;8.14;100.00
56006;BME280;41888;44.696;10.522;2023-04-27T02:32:17;100529.13;;;8.05;100.00
56006;BME280;41888;44.696;10.522;2023-04-27T02:34:43;100534.34;;;7.99;100.00
56006;BME280;41888;44.696;10.522;2023-04-27T02:37:10;100537.34;;;8.11;100.00
56006;BME280;41888;44.696;10.522;2023-04-27T02:39:36;100546.41;;;8.01;100.00
56006;BME280;41888;44.696;10.522;2023-04-27T02:42:02;100545.19;;;8.04;100.00
56006;BME280;41888;44.696;10.522;2023-04-27T02:44:29;100542.72;;;8.17;100.00
56006;BME280;41888;44.696;10.522;2023-04-27T02:46:55;100534.78;;;8.17;100.00
56006;BME280;41888;44.696;10.522;2023-04-27T02:49:21;100551.06;;;8.14;100.00
56006;BME280;41888;44.696;10.522;2023-04-27T02:51:47;100549.59;;;8.12;100.00
56006;BME280;41888;44.696;10.522;2023-04-27T02:54:13;100547.69;;;8.05;100.00
56006;BME280;41888;44.696;10.522;2023-04-27T02:56:40;100557.34;;;7.98;100.00
56006;BME280;41888;44.696;10.522;2023-04-27T02:59:06;100547.19;;;7.66;100.00
56006;BME280;41888;44.696;10.522;2023-04-27T03:01:32;100559.41;;;7.82;100.00
56006;BME280;41888;44.696;10.522;2023-04-27T03:03:58;100563.34;;;7.71;100.00
56006;BME280;41888;44.696;10.522;2023-04-27T03:06:24;100556.19;;;7.86;100.00
56006;BME280;41888;44.696;10.522;2023-04-27T03:08:50;100560.69;;;7.86;100.00
56006;BME280;41888;44.696;10.522;2023-04-27T03:11:17;100555.00;;;8.03;100.00
56006;BME280;41888;44.696;10.522;2023-04-27T03:13:43;100571.81;;;7.81;100.00
56006;BME280;41888;44.696;10.522;2023-04-27T03:16:09;100562.69;;;7.84;100.00
56006;BME280;41888;44.696;10.522;2023-04-27T03:18:38;100567.44;;;7.59;100.00
56006;BME280;41888;44.696;10.522;2023-04-27T03:21:09;100563.69;;;7.83;100.00
56006;BME280;41888;44.696;10.522;2023-04-27T03:23:35;100576.66;;;7.92;100.00
56006;BME280;41888;44.696;10.522;2023-04-27T03:26:06;100575.75;;;7.71;100.00
56006;BME280;41888;44.696;10.522;2023-04-27T03:28:32;100580.19;;;7.41;100.00
56006;BME280;41888;44.696;10.522;2023-04-27T03:30:59;100579.78;;;7.67;100.00
56006;BME280;41888;44.696;10.522;2023-04-27T03:33:25;100579.31;;;7.63;100.00
56006;BME280;41888;44.696;10.522;2023-04-27T03:35:57;100581.50;;;7.74;100.00
56006;BME280;41888;44.696;10.522;2023-04-27T03:38:25;100587.72;;;7.67;100.00
56006;BME280;41888;44.696;10.522;2023-04-27T03:40:52;100585.88;;;7.52;100.00
56006;BME280;41888;44.696;10.522;2023-04-27T03:43:19;100586.50;;;7.54;100.00
56006;BME280;41888;44.696;10.522;2023-04-27T03:45:46;100594.34;;;7.48;100.00
56006;BME280;41888;44.696;10.522;2023-04-27T03:48:13;100591.44;;;7.05;100.00
56006;BME280;41888;44.696;10.522;2023-04-27T03:50:39;100590.13;;;7.01;100.00
56006;BME280;41888;44.696;10.522;2023-04-27T03:53:06;100600.84;;;7.08;100.00
56006;BME280;41888;44.696;10.522;2023-04-27T03:55:32;100600.25;;;6.98;100.00
56006;BME280;41888;44.696;10.522;2023-04-27T03:57:59;100594.31;;;6.73;100.00
56006;BME280;41888;44.696;10.522;2023-04-27T04:00:25;100589.03;;;6.73;100.00
56006;BME280;41888;44.696;10.522;2023-04-27T04:02:51;100597.53;;;6.83;100.00
56006;BME280;41888;44.696;10.522;2023-04-27T04:05:18;100601.06;;;6.98;100.00
56006;BME280;41888;44.696;10.522;2023-04-27T04:07:44;100593.53;;;7.10;100.00
56006;BME280;41888;44.696;10.522;2023-04-27T04:10:10;100597.47;;;7.14;100.00
56006;BME280;41888;44.696;10.522;2023-04-27T04:12:36;100594.81;;;7.14;100.00
56006;BME280;41888;44.696;10.522;2023-04-27T04:15:03;100604.72;;;6.97;100.00
56006;BME280;41888;44.696;10.522;2023-04-27T04:17:30;100597.91;;;6.80;100.00
56006;BME280;41888;44.696;10.522;2023-04-27T04:19:56;100595.78;;;6.75;100.00
56006;BME280;41888;44.696;10.522;2023-04-27T04:22:22;100600.13;;;6.68;100.00
56006;BME280;41888;44.696;10.522;2023-04-27T04:24:48;100613.22;;;6.62;100.00
56006;BME280;41888;44.696;10.522;2023-04-27T04:27:14;100615.13;;;6.76;100.00
56006;BME280;41888;44.696;10.522;2023-04-27T04:29:41;100613.00;;;6.71;100.00
56006;BME280;41888;44.696;10.522;2023-04-27T04:32:08;100622.94;;;6.92;100.00
56006;BME280;41888;44.696;10.522;2023-04-27T04:34:34;100619.13;;;6.95;100.00
56006;BME280;41888;44.696;10.522;2023-04-27T04:37:01;100622.88;;;7.00;100.00
56006;BME280;41888;44.696;10.522;2023-04-27T04:39:33;100617.19;;;7.11;100.00
56006;BME280;41888;44.696;10.522;2023-04-27T04:42:00;100624.16;;;7.27;100.00
56006;BME280;41888;44.696;10.522;2023-04-27T04:44:26;100626.13;;;7.48;100.00
56006;BME280;41888;44.696;10.522;2023-04-27T04:46:52;100627.72;;;7.86;100.00
56006;BME280;41888;44.696;10.522;2023-04-27T04:49:18;100626.06;;;8.44;100.00
56006;BME280;41888;44.696;10.522;2023-04-27T04:51:44;100625.75;;;8.89;100.00
56006;BME280;41888;44.696;10.522;2023-04-27T04:54:11;100634.53;;;9.11;100.00
56006;BME280;41888;44.696;10.522;2023-04-27T04:56:37;100640.09;;;9.65;100.00
56006;BME280;41888;44.696;10.522;2023-04-27T04:59:04;100651.66;;;10.13;100.00
56006;BME280;41888;44.696;10.522;2023-04-27T05:01:30;100645.53;;;10.61;100.00
56006;BME280;41888;44.696;10.522;2023-04-27T05:03:56;100650.38;;;10.98;100.00
56006;BME280;41888;44.696;10.522;2023-04-27T05:06:22;100649.38;;;11.65;100.00
56006;BME280;41888;44.696;10.522;2023-04-27T05:08:48;100657.09;;;12.25;96.14
56006;BME280;41888;44.696;10.522;2023-04-27T05:11:14;100663.25;;;12.77;91.27
56006;BME280;41888;44.696;10.522;2023-04-27T05:13:41;100659.81;;;13.01;89.10
56006;BME280;41888;44.696;10.522;2023-04-27T05:16:07;100660.06;;;13.81;83.71
56006;BME280;41888;44.696;10.522;2023-04-27T05:18:34;100667.31;;;13.99;82.74
56006;BME280;41888;44.696;10.522;2023-04-27T05:21:01;100664.38;;;14.43;79.31
56006;BME280;41888;44.696;10.522;2023-04-27T05:23:27;100676.13;;;15.20;74.72
56006;BME280;41888;44.696;10.522;2023-04-27T05:25:53;100668.84;;;15.50;71.56
56006;BME280;41888;44.696;10.522;2023-04-27T05:28:19;100671.63;;;16.60;66.51
56006;BME280;41888;44.696;10.522;2023-04-27T05:30:46;100671.00;;;17.26;62.90
56006;BME280;41888;44.696;10.522;2023-04-27T05:33:12;100667.31;;;16.87;64.60
56006;BME280;41888;44.696;10.522;2023-04-27T05:35:38;100675.13;;;17.79;59.98
56006;BME280;41888;44.696;10.522;2023-04-27T05:38:04;100671.06;;;18.37;57.48
56006;BME280;41888;44.696;10.522;2023-04-27T05:40:30;100680.44;;;18.73;56.35
56006;BME280;41888;44.696;10.522;2023-04-27T05:42:56;100683.56;;;18.86;56.32
56006;BME280;41888;44.696;10.522;2023-04-27T05:45:23;100692.63;;;19.29;55.27
56006;BME280;41888;44.696;10.522;2023-04-27T05:47:49;100686.31;;;20.14;52.49
56006;BME280;41888;44.696;10.522;2023-04-27T05:50:15;100690.38;;;19.79;52.30
56006;BME280;41888;44.696;10.522;2023-04-27T05:52:41;100691.34;;;20.47;51.51
56006;BME280;41888;44.696;10.522;2023-04-27T05:55:07;100690.56;;;21.29;49.17
56006;BME280;41888;44.696;10.522;2023-04-27T05:57:34;100708.69;;;22.20;46.76
56006;BME280;41888;44.696;10.522;2023-04-27T06:00:00;100714.66;;;22.91;44.83
56006;BME280;41888;44.696;10.522;2023-04-27T06:02:26;100703.09;;;22.65;44.26
56006;BME280;41888;44.696;10.522;2023-04-27T06:04:52;100716.88;;;22.89;43.77
56006;BME280;41888;44.696;10.522;2023-04-27T06:07:19;100733.56;;;24.18;40.88
56006;BME280;41888;44.696;10.522;2023-04-27T06:09:45;100726.97;;;24.96;39.67
56006;BME280;41888;44.696;10.522;2023-04-27T06:12:11;100722.75;;;25.78;37.99
56006;BME280;41888;44.696;10.522;2023-04-27T06:14:37;100724.16;;;25.38;38.37
56006;BME280;41888;44.696;10.522;2023-04-27T06:17:03;100714.16;;;25.52;38.00
56006;BME280;41888;44.696;10.522;2023-04-27T06:19:30;100720.41;;;25.72;37.73
56006;BME280;41888;44.696;10.522;2023-04-27T06:21:56;100719.00;;;24.57;39.51
56006;BME280;41888;44.696;10.522;2023-04-27T06:24:22;100727.47;;;24.55;41.13
56006;BME280;41888;44.696;10.522;2023-04-27T06:26:49;100719.97;;;23.11;43.90
56006;BME280;41888;44.696;10.522;2023-04-27T06:29:15;100723.59;;;23.41;43.51
56006;BME280;41888;44.696;10.522;2023-04-27T06:31:42;100720.63;;;22.09;47.11
56006;BME280;41888;44.696;10.522;2023-04-27T06:34:08;100715.81;;;20.73;50.76
56006;BME280;41888;44.696;10.522;2023-04-27T06:36:34;100717.97;;;20.71;52.54
56006;BME280;41888;44.696;10.522;2023-04-27T06:39:01;100710.94;;;20.22;55.19
56006;BME280;41888;44.696;10.522;2023-04-27T06:41:27;100724.75;;;19.89;56.74
56006;BME280;41888;44.696;10.522;2023-04-27T06:43:53;100719.34;;;19.04;62.32
56006;BME280;41888;44.696;10.522;2023-04-27T06:46:20;100722.88;;;18.82;63.68
56006;BME280;41888;44.696;10.522;2023-04-27T06:48:46;100717.75;;;18.42;66.80
56006;BME280;41888;44.696;10.522;2023-04-27T06:51:13;100725.13;;;18.30;68.24
56006;BME280;41888;44.696;10.522;2023-04-27T06:53:39;100727.00;;;17.75;70.69
56006;BME280;41888;44.696;10.522;2023-04-27T06:56:08;100719.59;;;18.20;70.35
56006;BME280;41888;44.696;10.522;2023-04-27T06:58:34;100722.00;;;17.66;74.63
56006;BME280;41888;44.696;10.522;2023-04-27T07:01:01;100721.88;;;16.88;81.13
56006;BME280;41888;44.696;10.522;2023-04-27T07:03:27;100726.47;;;17.61;78.05
56006;BME280;41888;44.696;10.522;2023-04-27T07:05:53;100722.75;;;17.95;76.61
56006;BME280;41888;44.696;10.522;2023-04-27T07:08:21;100719.31;;;17.66;77.81
56006;BME280;41888;44.696;10.522;2023-04-27T07:10:47;100721.03;;;17.27;81.07
56006;BME280;41888;44.696;10.522;2023-04-27T07:13:14;100720.44;;;17.54;81.05
56006;BME280;41888;44.696;10.522;2023-04-27T07:15:40;100720.25;;;17.44;80.61
56006;BME280;41888;44.696;10.522;2023-04-27T07:18:06;100716.81;;;16.40;88.70
56006;BME280;41888;44.696;10.522;2023-04-27T07:20:32;100724.47;;;15.96;92.65
56006;BME280;41888;44.696;10.522;2023-04-27T07:22:58;100726.31;;;15.84;94.93
56006;BME280;41888;44.696;10.522;2023-04-27T07:25:24;100724.59;;;15.48;96.34
56006;BME280;41888;44.696;10.522;2023-04-27T07:27:51;100717.41;;;15.72;96.74
56006;BME280;41888;44.696;10.522;2023-04-27T07:30:17;100722.69;;;15.79;96.36
56006;BME280;41888;44.696;10.522;2023-04-27T07:32:43;100717.22;;;15.44;97.69
56006;BME280;41888;44.696;10.522;2023-04-27T07:35:10;100718.72;;;15.40;98.67
56006;BME280;41888;44.696;10.522;2023-04-27T07:37:36;100720.78;;;15.68;96.45
56006;BME280;41888;44.696;10.522;2023-04-27T07:40:04;100711.84;;;15.85;96.22
56006;BME280;41888;44.696;10.522;2023-04-27T07:42:41;100722.91;;;15.36;98.92
56006;BME280;41888;44.696;10.522;2023-04-27T07:45:10;100714.91;;;15.47;100.00
56006;BME280;41888;44.696;10.522;2023-04-27T07:47:37;100721.47;;;15.51;98.79
56006;BME280;41888;44.696;10.522;2023-04-27T07:50:07;100709.50;;;16.00;98.21
56006;BME280;41888;44.696;10.522;2023-04-27T07:52:33;100718.28;;;15.96;96.74
56006;BME280;41888;44.696;10.522;2023-04-27T07:54:59;100715.44;;;16.14;95.25
56006;BME280;41888;44.696;10.522;2023-04-27T07:57:26;100715.94;;;16.11;94.72
56006;BME280;41888;44.696;10.522;2023-04-27T07:59:52;100712.66;;;16.09;93.42
56006;BME280;41888;44.696;10.522;2023-04-27T08:02:18;100719.97;;;15.67;98.13
56006;BME280;41888;44.696;10.522;2023-04-27T08:04:45;100721.97;;;15.83;100.00
56006;BME280;41888;44.696;10.522;2023-04-27T08:07:11;100719.41;;;16.35;97.03
56006;BME280;41888;44.696;10.522;2023-04-27T08:09:37;100713.31;;;16.39;94.02
56006;BME280;41888;44.696;10.522;2023-04-27T08:12:03;100721.97;;;16.30;95.70
56006;BME280;41888;44.696;10.522;2023-04-27T08:14:30;100725.25;;;16.09;98.25
56006;BME280;41888;44.696;10.522;2023-04-27T08:16:58;100715.66;;;16.47;98.56
56006;BME280;41888;44.696;10.522;2023-04-27T08:19:24;100721.25;;;16.46;94.68
56006;BME280;41888;44.696;10.522;2023-04-27T08:21:50;100722.72;;;16.77;93.43
56006;BME280;41888;44.696;10.522;2023-04-27T08:24:17;100725.25;;;16.95;91.89
56006;BME280;41888;44.696;10.522;2023-04-27T08:26:43;100719.81;;;16.78;94.81
56006;BME280;41888;44.696;10.522;2023-04-27T08:29:09;100720.06;;;16.77;98.76
56006;BME280;41888;44.696;10.522;2023-04-27T08:31:35;100729.22;;;16.93;96.44
56006;BME280;41888;44.696;10.522;2023-04-27T08:34:01;100730.84;;;17.05;94.99
56006;BME280;41888;44.696;10.522;2023-04-27T08:36:28;100732.44;;;16.78;94.02
56006;BME280;41888;44.696;10.522;2023-04-27T08:38:54;100736.38;;;16.87;96.06
56006;BME280;41888;44.696;10.522;2023-04-27T08:41:21;100737.06;;;16.94;96.01
56006;BME280;41888;44.696;10.522;2023-04-27T08:43:49;100737.03;;;17.06;96.14
56006;BME280;41888;44.696;10.522;2023-04-27T08:46:23;100737.91;;;17.40;92.30
56006;BME280;41888;44.696;10.522;2023-04-27T08:48:50;100739.53;;;17.41;90.76
56006;BME280;41888;44.696;10.522;2023-04-27T08:51:17;100743.31;;;17.56;89.54
56006;BME280;41888;44.696;10.522;2023-04-27T08:56:14;100743.06;;;17.41;87.51
56006;BME280;41888;44.696;10.522;2023-04-27T08:58:40;100739.03;;;17.55;88.14
56006;BME280;41888;44.696;10.522;2023-04-27T09:01:06;100750.16;;;17.47;87.38
56006;BME280;41888;44.696;10.522;2023-04-27T09:03:33;100746.28;;;17.26;89.95
56006;BME280;41888;44.696;10.522;2023-04-27T09:06:01;100740.97;;;17.15;92.67
56006;BME280;41888;44.696;10.522;2023-04-27T09:08:28;100737.13;;;17.56;90.98
56006;BME280;41888;44.696;10.522;2023-04-27T09:10:54;100739.63;;;17.46;90.36
56006;BME280;41888;44.696;10.522;2023-04-27T09:13:21;100747.38;;;17.87;89.26
56006;BME280;41888;44.696;10.522;2023-04-27T09:15:49;100739.84;;;18.23;84.66
56006;BME280;41888;44.696;10.522;2023-04-27T09:18:18;100737.09;;;18.56;83.36
56006;BME280;41888;44.696;10.522;2023-04-27T09:20:45;100745.09;;;18.12;84.64
56006;BME280;41888;44.696;10.522;2023-04-27T09:23:24;100745.16;;;18.18;84.97
56006;BME280;41888;44.696;10.522;2023-04-27T09:26:01;100738.22;;;17.88;84.76
56006;BME280;41888;44.696;10.522;2023-04-27T09:28:29;100731.06;;;17.94;83.01
56006;BME280;41888;44.696;10.522;2023-04-27T09:31:00;100734.50;;;18.44;82.03
56006;BME280;41888;44.696;10.522;2023-04-27T09:33:28;100736.84;;;18.02;83.48
56006;BME280;41888;44.696;10.522;2023-04-27T09:36:00;100730.66;;;17.40;88.25
56006;BME280;41888;44.696;10.522;2023-04-27T09:38:26;100724.31;;;17.46;89.55
56006;BME280;41888;44.696;10.522;2023-04-27T09:40:53;100728.63;;;17.76;87.45
56006;BME280;41888;44.696;10.522;2023-04-27T09:43:19;100726.00;;;17.97;89.56
56006;BME280;41888;44.696;10.522;2023-04-27T09:45:47;100724.16;;;18.20;87.58
56006;BME280;41888;44.696;10.522;2023-04-27T09:48:14;100725.03;;;18.42;85.38
56006;BME280;41888;44.696;10.522;2023-04-27T09:50:41;100722.78;;;18.34;85.22
56006;BME280;41888;44.696;10.522;2023-04-27T09:53:19;100723.03;;;18.15;83.30
56006;BME280;41888;44.696;10.522;2023-04-27T10:07:30;100709.47;;;18.27;83.46
56006;BME280;41888;44.696;10.522;2023-04-27T10:09:42;100708.31;;;18.40;84.73
56006;BME280;41888;44.696;10.522;2023-04-27T10:12:27;100718.50;;;18.76;82.64
56006;BME280;41888;44.696;10.522;2023-04-27T10:14:59;100723.31;;;18.96;82.95
56006;BME280;41888;44.696;10.522;2023-04-27T10:17:33;100712.16;;;19.41;84.77
56006;BME280;41888;44.696;10.522;2023-04-27T10:20:02;100714.34;;;19.71;75.21
56006;BME280;41888;44.696;10.522;2023-04-27T10:22:48;100716.31;;;19.49;77.71
56006;BME280;41888;44.696;10.522;2023-04-27T10:25:25;100710.03;;;19.70;77.28
56006;BME280;41888;44.696;10.522;2023-04-27T10:30:21;100705.19;;;20.09;76.81
56006;BME280;41888;44.696;10.522;2023-04-27T10:32:51;100694.41;;;20.61;72.85
56006;BME280;41888;44.696;10.522;2023-04-27T10:35:19;100703.72;;;20.33;75.18
56006;BME280;41888;44.696;10.522;2023-04-27T10:37:46;100693.75;;;20.39;75.66
56006;BME280;41888;44.696;10.522;2023-04-27T10:40:14;100694.22;;;20.31;74.52
56006;BME280;41888;44.696;10.522;2023-04-27T10:42:46;100688.09;;;20.40;73.66
56006;BME280;41888;44.696;10.522;2023-04-27T10:45:24;100691.16;;;20.64;73.15
56006;BME280;41888;44.696;10.522;2023-04-27T10:47:57;100700.69;;;19.83;75.83
56006;BME280;41888;44.696;10.522;2023-04-27T10:50:25;100694.91;;;19.42;77.10
56006;BME280;41888;44.696;10.522;2023-04-27T10:52:51;100689.16;;;20.34;74.30
56006;BME280;41888;44.696;10.522;2023-04-27T10:55:22;100679.28;;;20.70;71.50
56006;BME280;41888;44.696;10.522;2023-04-27T10:57:50;100675.88;;;20.33;73.05
56006;BME280;41888;44.696;10.522;2023-04-27T11:00:28;100685.09;;;19.58;76.99
56006;BME280;41888;44.696;10.522;2023-04-27T11:02:56;100684.47;;;19.83;77.80
56006;BME280;41888;44.696;10.522;2023-04-27T11:05:25;100682.25;;;20.69;72.65
56006;BME280;41888;44.696;10.522;2023-04-27T11:08:08;100680.81;;;20.41;71.50
56006;BME280;41888;44.696;10.522;2023-04-27T11:10:41;100674.81;;;20.34;67.91
56006;BME280;41888;44.696;10.522;2023-04-27T11:13:10;100678.41;;;20.02;69.11
56006;BME280;41888;44.696;10.522;2023-04-27T11:18:14;100676.97;;;21.09;65.65
56006;BME280;41888;44.696;10.522;2023-04-27T11:20:45;100685.41;;;21.38;63.47
56006;BME280;41888;44.696;10.522;2023-04-27T11:25:49;100681.94;;;20.55;67.16
56006;BME280;41888;44.696;10.522;2023-04-27T11:28:18;100677.34;;;20.50;68.62
56006;BME280;41888;44.696;10.522;2023-04-27T11:30:45;100673.50;;;20.46;69.77
56006;BME280;41888;44.696;10.522;2023-04-27T11:33:11;100673.41;;;20.93;67.58
56006;BME280;41888;44.696;10.522;2023-04-27T11:35:37;100677.72;;;20.27;68.03
56006;BME280;41888;44.696;10.522;2023-04-27T11:38:04;100672.78;;;20.66;67.76
56006;BME280;41888;44.696;10.522;2023-04-27T11:40:30;100672.06;;;20.96;66.00
56006;BME280;41888;44.696;10.522;2023-04-27T11:43:00;100674.06;;;21.41;64.62
56006;BME280;41888;44.696;10.522;2023-04-27T11:45:31;100672.69;;;21.33;65.01
56006;BME280;41888;44.696;10.522;2023-04-27T11:47:58;100669.13;;;21.13;65.85
56006;BME280;41888;44.696;10.522;2023-04-27T11:50:25;100667.72;;;20.90;67.27
56006;BME280;41888;44.696;10.522;2023-04-27T11:52:53;100676.06;;;20.78;65.88
56006;BME280;41888;44.696;10.522;2023-04-27T11:55:21;100669.19;;;20.45;63.51
56006;BME280;41888;44.696;10.522;2023-04-27T11:57:47;100668.19;;;20.67;63.52
56006;BME280;41888;44.696;10.522;2023-04-27T12:00:14;100673.13;;;20.95;60.24
56006;BME280;41888;44.696;10.522;2023-04-27T12:02:42;100671.00;;;21.02;60.78
56006;BME280;41888;44.696;10.522;2023-04-27T12:05:08;100669.97;;;21.48;60.88
56006;BME280;41888;44.696;10.522;2023-04-27T12:07:35;100673.25;;;21.56;61.11
56006;BME280;41888;44.696;10.522;2023-04-27T12:10:01;100678.56;;;21.00;59.07
56006;BME280;41888;44.696;10.522;2023-04-27T12:12:27;100671.59;;;21.34;58.76
56006;BME280;41888;44.696;10.522;2023-04-27T12:14:54;100685.41;;;21.48;58.34
56006;BME280;41888;44.696;10.522;2023-04-27T12:17:20;100680.28;;;21.72;57.22
56006;BME280;41888;44.696;10.522;2023-04-27T12:19:46;100669.41;;;22.07;56.68
56006;BME280;41888;44.696;10.522;2023-04-27T12:22:12;100668.09;;;21.49;55.58
56006;BME280;41888;44.696;10.522;2023-04-27T12:24:39;100664.00;;;21.31;57.79
56006;BME280;41888;44.696;10.522;2023-04-27T12:27:05;100659.50;;;20.59;61.55
56006;BME280;41888;44.696;10.522;2023-04-27T12:29:32;100671.31;;;21.26;60.06
56006;BME280;41888;44.696;10.522;2023-04-27T12:31:58;100669.16;;;21.43;58.34
56006;BME280;41888;44.696;10.522;2023-04-27T12:34:25;100672.69;;;21.64;58.57
56006;BME280;41888;44.696;10.522;2023-04-27T12:36:51;100669.44;;;21.31;56.76
56006;BME280;41888;44.696;10.522;2023-04-27T12:39:21;100657.53;;;21.22;55.03
56006;BME280;41888;44.696;10.522;2023-04-27T12:41:51;100656.28;;;20.62;57.13
56006;BME280;41888;44.696;10.522;2023-04-27T12:44:18;100654.56;;;21.29;54.22
56006;BME280;41888;44.696;10.522;2023-04-27T12:46:45;100662.06;;;21.12;55.16
56006;BME280;41888;44.696;10.522;2023-04-27T12:49:13;100664.03;;;21.62;54.73
56006;BME280;41888;44.696;10.522;2023-04-27T12:51:40;100674.31;;;21.44;53.60
56006;BME280;41888;44.696;10.522;2023-04-27T12:54:07;100664.97;;;22.31;51.21
56006;BME280;41888;44.696;10.522;2023-04-27T12:56:34;100673.22;;;21.81;50.92
56006;BME280;41888;44.696;10.522;2023-04-27T12:59:00;100667.25;;;21.18;51.73
56006;BME280;41888;44.696;10.522;2023-04-27T13:01:27;100653.19;;;21.36;51.08